KMGY/MGY METAR and TAF weather

Enter ICAO airport designator
Station Type Date Time Source
KMGY METAR 2021/04/14 20:53 UTC NOAA

KMGY 142053Z AUTO 26009KT 230V290 10SM SCT060 17/03 A2997 RMK AO2 SLP147 T01670028 56026


Station Type Date Time Source
KMGY Decoded METAR 2021/04/14 20:53 UTC NOAA

DAYTON WRIGHT BROTHERS AIRPORT , OH, United States (KMGY) 39-36N 84-14W 289M
Apr 14, 2021 - 04:53 PM EDT / 2021.04.14 2053 UTC
Wind: from the W (260 degrees) at 10 MPH (9 KT) (direction variable):0
Visibility: 10 mile(s):0
Sky conditions: partly cloudy
Temperature: 62.1 F (16.7 C)
Dew Point: 37.0 F (2.8 C)
Relative Humidity: 39%
Pressure (altimeter): 29.97 in. Hg (1014 hPa)
Pressure tendency: 0.08 inches (2.6 hPa) lower than three hours ago
ob: KMGY 142053Z AUTO 26009KT 230V290 10SM SCT060 17/03 A2997 RMK AO2 SLP147 T01670028 56026
cycle: 21

Station Type Date Time Source
KMGY TAF UTC NOAA

Error!

Example: see airport list